Time;durP1;ratioP1;P1;durP2;ratioP2;P2;SDS_P1;SDS_P2;PMS_P1;PMS_P2;Temp;Humidity;BMP_temperature;BMP_pressure;BME280_temperature;BME280_humidity;BME280_pressure;Samples;Min_cycle;Max_cycle;Signal;HPM_P1;HPM_P2
2020/12/29 00:00:37;;;;;;;19.57;12.87;;;2.10;99.90;;;0.18;100.00;97078.84;4864585;28;99670;-67
2020/12/29 00:03:04;;;;;;;16.57;12.70;;;2.30;99.90;;;0.19;100.00;97080.47;4864882;28;101240;-65
2020/12/29 00:05:30;;;;;;;20.20;12.73;;;2.30;99.90;;;0.18;100.00;97085.91;4865801;28;101029;-66
2020/12/29 00:07:57;;;;;;;16.53;12.80;;;2.20;99.90;;;0.17;100.00;97098.22;4865792;28;100171;-64
2020/12/29 00:10:24;;;;;;;21.17;13.20;;;2.20;99.90;;;0.20;100.00;97100.53;4864522;28;99688;-65
2020/12/29 00:12:52;;;;;;;15.83;12.27;;;2.30;99.90;;;0.21;100.00;97096.91;4865092;28;100085;-64
2020/12/29 00:15:19;;;;;;;19.07;13.03;;;2.20;99.90;;;0.23;100.00;97102.00;4879039;28;100134;-64
2020/12/29 00:17:46;;;;;;;19.73;13.10;;;2.20;99.90;;;0.23;100.00;97108.09;4865196;28;100156;-68
2020/12/29 00:20:13;;;;;;;16.77;13.07;;;2.40;99.90;;;0.23;100.00;97109.88;4867049;28;99882;-67
2020/12/29 00:22:40;;;;;;;18.47;13.20;;;2.20;99.90;;;0.24;100.00;97120.25;4862130;28;102504;-68
2020/12/29 00:25:06;;;;;;;19.33;13.80;;;2.30;99.90;;;0.27;100.00;97122.50;4879060;28;100071;-66
2020/12/29 00:27:33;;;;;;;20.27;14.13;;;2.30;99.90;;;0.29;100.00;97127.59;4866042;28;99848;-67
2020/12/29 00:30:02;;;;;;;18.93;14.03;;;2.40;99.90;;;0.29;100.00;97117.06;4864930;28;99818;-66
2020/12/29 00:32:29;;;;;;;19.83;14.10;;;2.20;99.90;;;0.32;100.00;97128.09;4864595;28;101336;-66
2020/12/29 00:34:56;;;;;;;20.23;14.20;;;2.30;99.90;;;0.35;100.00;97125.13;4878151;28;99990;-67
2020/12/29 00:37:23;;;;;;;19.90;14.40;;;2.40;99.90;;;0.35;100.00;97134.81;4864159;28;99950;-66
2020/12/29 00:39:50;;;;;;;18.30;13.67;;;2.50;99.90;;;0.32;100.00;97146.50;4865560;28;100033;-67
2020/12/29 00:42:17;;;;;;;20.40;14.03;;;2.20;99.90;;;0.38;100.00;97136.25;4880631;28;100276;-67
2020/12/29 00:44:46;;;;;;;22.23;15.17;;;3.00;99.90;;;0.39;100.00;97143.16;4864438;28;100029;-68
2020/12/29 00:47:14;;;;;;;19.73;13.90;;;2.50;99.90;;;0.40;100.00;97150.91;4865036;28;99779;-68
2020/12/29 00:49:41;;;;;;;19.37;14.60;;;2.20;99.90;;;0.40;100.00;97144.81;4865752;28;99583;-67
2020/12/29 00:52:08;;;;;;;18.63;13.67;;;2.30;99.90;;;0.44;100.00;97140.84;4862243;28;100160;-67
2020/12/29 00:54:48;;;;;;;21.03;14.27;;;2.60;99.90;;;0.44;100.00;97148.75;4878427;28;99808;-67
2020/12/29 00:57:27;;;;;;;19.50;14.67;;;2.40;99.90;;;0.43;100.00;97150.56;4879039;28;99585;-67
2020/12/29 00:59:53;;;;;;;19.43;14.03;;;2.40;99.90;;;0.44;100.00;97149.56;4880487;28;99638;-66
2020/12/29 01:02:21;;;;;;;20.00;14.20;;;2.40;99.90;;;0.44;100.00;97133.78;4864636;28;100117;-67
2020/12/29 01:05:06;;;;;;;19.23;14.27;;;2.30;99.90;;;0.42;100.00;97133.13;4863686;28;100234;-67
2020/12/29 01:07:33;;;;;;;22.17;15.53;;;2.80;99.90;;;0.41;100.00;97130.66;4864682;28;99961;-67
2020/12/29 01:10:00;;;;;;;18.47;14.33;;;2.40;99.90;;;0.35;100.00;97140.91;4861783;28;100090;-66
2020/12/29 01:12:28;;;;;;;21.73;15.70;;;2.30;99.90;;;0.29;100.00;97154.72;4877935;28;100148;-67
2020/12/29 01:14:55;;;;;;;20.93;14.80;;;2.30;99.90;;;0.27;100.00;97145.34;4861668;28;99816;-66
2020/12/29 01:17:27;;;;;;;20.33;14.87;;;2.40;99.90;;;0.28;100.00;97147.81;4881076;28;100094;-67
2020/12/29 01:19:53;;;;;;;20.77;15.17;;;2.20;99.90;;;0.22;100.00;97156.41;4863962;28;99546;-66
2020/12/29 01:22:21;;;;;;;21.87;15.80;;;3.40;99.90;;;0.24;100.00;97150.97;4863904;28;101047;-67
2020/12/29 01:24:48;;;;;;;22.87;15.83;;;2.30;99.90;;;0.25;100.00;97144.69;4862522;28;99892;-66
2020/12/29 01:27:16;;;;;;;23.33;15.03;;;2.10;99.90;;;0.20;100.00;97147.84;4877179;28;100298;-67
2020/12/29 01:29:42;;;;;;;22.90;16.90;;;3.30;99.90;;;0.20;100.00;97142.59;4877153;28;100133;-67
2020/12/29 01:32:09;;;;;;;23.53;16.07;;;2.10;99.90;;;0.21;100.00;97141.59;4863491;28;100533;-67
2020/12/29 01:34:36;;;;;;;21.43;15.07;;;2.10;99.90;;;0.17;100.00;97136.84;4863009;28;100926;-66
2020/12/29 01:37:03;;;;;;;23.13;16.37;;;2.00;99.90;;;0.18;100.00;97144.56;4863539;28;100239;-66
2020/12/29 01:39:30;;;;;;;21.90;15.50;;;2.00;99.90;;;0.17;100.00;97150.81;4877693;28;100253;-66
2020/12/29 01:41:56;;;;;;;25.00;17.20;;;2.10;99.90;;;0.12;100.00;97147.91;4863646;28;101243;-67
2020/12/29 01:44:23;;;;;;;21.77;16.23;;;2.10;99.90;;;0.13;100.00;97151.31;4863206;28;99792;-64
2020/12/29 01:46:51;;;;;;;22.47;16.53;;;1.80;99.90;;;0.12;100.00;97147.06;4863762;28;99771;-65
2020/12/29 01:49:18;;;;;;;23.97;16.80;;;1.90;99.90;;;0.11;100.00;97146.25;4865041;28;99964;-68
2020/12/29 01:51:46;;;;;;;23.70;16.63;;;2.00;99.90;;;0.11;100.00;97141.00;4878368;28;100002;-63
2020/12/29 01:54:13;;;;;;;22.80;16.60;;;2.10;99.90;;;0.14;100.00;97139.81;4862850;28;100526;-66
2020/12/29 01:56:41;;;;;;;19.80;14.67;;;2.10;99.90;;;0.20;100.00;97133.88;4863829;28;99725;-67
2020/12/29 01:59:14;;;;;;;22.60;17.50;;;2.10;99.90;;;0.20;100.00;97129.44;4877233;28;100277;-66
2020/12/29 02:01:43;;;;;;;22.70;16.07;;;2.00;99.90;;;0.23;100.00;97125.66;4863262;28;100056;-65
2020/12/29 02:04:11;;;;;;;24.33;16.73;;;2.20;99.90;;;0.19;100.00;97125.19;4863379;28;100612;-67
2020/12/29 02:06:38;;;;;;;23.17;16.77;;;2.00;99.90;;;0.20;100.00;97112.84;4861533;28;100102;-67
2020/12/29 02:09:08;;;;;;;25.30;17.13;;;0.90;99.90;;;0.16;100.00;97112.38;4865252;28;100040;-67
2020/12/29 02:11:37;;;;;;;21.87;16.17;;;2.40;99.90;;;0.12;100.00;97116.34;4866515;28;100609;-67
2020/12/29 02:14:08;;;;;;;21.53;16.03;;;2.00;99.90;;;0.06;100.00;97116.19;4865167;28;100077;-66
2020/12/29 02:16:37;;;;;;;21.53;16.63;;;2.00;99.90;;;-0.01;100.00;97116.88;4863180;28;99485;-66
2020/12/29 02:19:05;;;;;;;24.63;17.33;;;2.00;99.90;;;-0.02;100.00;97122.31;4863302;28;100312;-66
2020/12/29 02:21:33;;;;;;;24.93;17.80;;;3.10;99.90;;;-0.02;100.00;97120.50;4862793;28;100021;-63
2020/12/29 02:24:02;;;;;;;25.73;15.97;;;1.80;99.90;;;-0.05;100.00;97130.50;4863362;28;100498;-65
2020/12/29 02:26:31;;;;;;;22.47;16.37;;;1.80;99.90;;;-0.10;100.00;97131.00;4862289;28;100395;-66
2020/12/29 02:28:59;;;;;;;24.73;17.90;;;1.80;99.90;;;-0.12;100.00;97127.72;4863336;28;99652;-65
2020/12/29 02:31:28;;;;;;;24.13;17.10;;;1.60;99.90;;;-0.11;100.00;97137.25;4878610;28;102018;-66
2020/12/29 02:33:55;;;;;;;23.63;16.80;;;1.50;99.90;;;-0.19;100.00;97139.09;4863530;28;99881;-66
2020/12/29 02:36:22;;;;;;;24.67;17.23;;;1.70;99.90;;;-0.19;100.00;97149.59;4864703;28;99735;-65
2020/12/29 02:38:49;;;;;;;23.73;17.13;;;1.60;99.90;;;-0.17;100.00;97152.88;4862839;28;99845;-63
2020/12/29 02:41:17;;;;;;;23.60;16.07;;;1.50;99.90;;;-0.20;100.00;97150.56;4862535;28;101844;-64
2020/12/29 02:43:44;;;;;;;24.43;16.60;;;1.50;99.90;;;-0.23;100.00;97148.28;4862478;28;100534;-66
2020/12/29 02:46:12;;;;;;;25.97;18.63;;;1.50;99.90;;;-0.22;100.00;97155.19;4865013;28;99932;-64
2020/12/29 02:48:39;;;;;;;25.10;16.80;;;1.50;99.90;;;-0.24;100.00;97144.81;4863379;28;99991;-64
2020/12/29 02:51:06;;;;;;;27.40;18.80;;;2.30;99.90;;;-0.24;100.00;97155.34;4863772;28;99900;-65
2020/12/29 02:53:33;;;;;;;24.17;18.90;;;1.30;99.90;;;-0.29;100.00;97169.97;4862614;28;100074;-66
2020/12/29 02:56:00;;;;;;;25.30;17.83;;;1.50;99.90;;;-0.33;100.00;97166.84;4863322;28;99944;-64
2020/12/29 02:58:28;;;;;;;24.73;17.67;;;1.40;99.90;;;-0.39;100.00;97176.22;4864063;28;99892;-63
2020/12/29 03:00:55;;;;;;;25.80;18.53;;;1.40;99.90;;;-0.41;100.00;97182.63;4862544;28;102828;-62
2020/12/29 03:03:22;;;;;;;26.27;18.07;;;1.30;99.90;;;-0.46;100.00;97185.75;4876222;28;99739;-64
2020/12/29 03:05:49;;;;;;;28.30;19.03;;;1.20;99.90;;;-0.44;100.00;97175.91;4860396;28;100055;-62
2020/12/29 03:08:16;;;;;;;26.20;18.20;;;2.20;99.90;;;-0.51;100.00;97168.84;4863895;28;99899;-66
2020/12/29 03:10:44;;;;;;;25.73;18.70;;;1.40;99.90;;;-0.47;100.00;97164.88;4865992;28;100056;-64
2020/12/29 03:13:10;;;;;;;27.07;18.70;;;1.30;99.90;;;-0.54;100.00;97172.63;4864836;28;101440;-65
2020/12/29 03:15:38;;;;;;;27.90;19.23;;;1.20;99.90;;;-0.59;100.00;97181.97;4865907;28;99976;-64
2020/12/29 03:18:05;;;;;;;25.20;18.53;;;1.10;99.90;;;-0.70;100.00;97191.00;4865912;28;99702;-64
2020/12/29 03:20:33;;;;;;;24.93;19.00;;;1.10;99.90;;;-0.74;100.00;97193.09;4864759;28;100714;-61
2020/12/29 03:23:00;;;;;;;26.30;18.10;;;1.10;99.90;;;-0.69;100.00;97186.56;4865759;28;100727;-64
2020/12/29 03:25:26;;;;;;;94.17;23.40;;;1.10;99.90;;;-0.59;100.00;97192.47;4866698;28;99832;-63
2020/12/29 03:27:53;;;;;;;27.23;16.60;;;1.10;99.90;;;-0.58;100.00;97192.31;4866347;28;100094;-61
2020/12/29 03:30:20;;;;;;;23.30;16.40;;;1.00;99.90;;;-0.65;100.00;97188.72;4863577;28;102019;-65
2020/12/29 03:32:47;;;;;;;25.40;18.20;;;1.10;99.90;;;-0.62;100.00;97205.94;4878367;28;99899;-65
2020/12/29 03:35:14;;;;;;;24.83;17.07;;;1.10;99.90;;;-0.64;100.00;97206.09;4864870;28;100146;-63
2020/12/29 03:37:41;;;;;;;23.73;16.87;;;-0.10;99.90;;;-0.62;100.00;97198.88;4864901;28;99959;-63
2020/12/29 03:40:07;;;;;;;26.03;16.90;;;1.90;99.90;;;-0.61;100.00;97200.50;4863895;28;101170;-62
2020/12/29 03:42:37;;;;;;;24.33;17.33;;;1.00;99.90;;;-0.62;100.00;97214.66;4865654;28;100405;-64
2020/12/29 03:45:05;;;;;;;24.83;16.10;;;1.00;99.90;;;-0.70;100.00;97208.53;4865399;28;99872;-64
2020/12/29 03:47:31;;;;;;;23.73;15.83;;;-0.10;99.90;;;-0.70;100.00;97217.25;4865253;28;99667;-64
2020/12/29 03:49:59;;;;;;;22.93;16.63;;;1.10;99.90;;;-0.72;100.00;97216.56;4865020;28;100528;-64
2020/12/29 03:52:25;;;;;;;27.47;18.47;;;1.10;99.90;;;-0.74;100.00;97213.28;4864141;28;101366;-62
2020/12/29 03:54:52;;;;;;;23.70;16.90;;;1.00;99.90;;;-0.68;100.00;97214.47;4864835;28;99703;-65
2020/12/29 03:57:19;;;;;;;24.10;15.47;;;1.10;99.90;;;-0.76;100.00;97226.59;4864557;28;99598;-65
2020/12/29 03:59:45;;;;;;;26.30;16.60;;;0.90;99.90;;;-0.66;100.00;97221.19;4864361;28;100198;-65
2020/12/29 04:02:12;;;;;;;25.27;17.03;;;0.90;99.90;;;-0.76;100.00;97217.91;4915028;28;100211;-62
2020/12/29 04:04:39;;;;;;;27.73;17.27;;;0.80;99.90;;;-0.75;100.00;97222.19;4938117;28;99622;-65
2020/12/29 04:07:06;;;;;;;24.83;15.87;;;0.80;99.90;;;-0.74;100.00;97229.88;4864617;28;99585;-67
2020/12/29 04:09:35;;;;;;;24.37;16.60;;;0.90;99.90;;;-0.73;100.00;97228.06;4864526;28;100038;-65
2020/12/29 04:12:02;;;;;;;27.17;17.80;;;0.80;99.90;;;-0.72;100.00;97225.28;4864822;28;100588;-65
2020/12/29 04:14:29;;;;;;;25.50;16.23;;;0.70;99.90;;;-0.91;100.00;97233.47;4865816;28;99406;-65
2020/12/29 04:16:58;;;;;;;20.50;15.23;;;0.70;99.90;;;-0.94;100.00;97231.16;4864631;28;99549;-65
2020/12/29 04:19:25;;;;;;;23.07;15.97;;;0.70;99.90;;;-1.08;100.00;97237.84;4878073;28;100424;-67
2020/12/29 04:21:52;;;;;;;23.73;15.67;;;0.60;99.90;;;-1.18;100.00;97245.03;4864800;28;99790;-67
2020/12/29 04:24:22;;;;;;;22.03;14.93;;;0.60;99.90;;;-1.15;100.00;97252.59;4864721;28;99582;-67
2020/12/29 04:26:48;;;;;;;21.07;13.93;;;0.70;99.90;;;-1.06;100.00;97242.91;4878686;28;100346;-66
2020/12/29 04:29:15;;;;;;;23.70;15.50;;;0.60;99.90;;;-1.26;100.00;97246.81;4865131;28;100457;-67
2020/12/29 04:31:42;;;;;;;25.07;15.80;;;0.90;99.90;;;-1.33;100.00;97254.47;4864308;28;99631;-68
2020/12/29 04:34:09;;;;;;;26.90;17.90;;;0.50;99.90;;;-1.32;100.00;97256.09;4862777;28;99774;-67
2020/12/29 04:36:35;;;;;;;22.50;15.90;;;0.40;99.90;;;-1.38;100.00;97258.56;4864441;28;99879;-67
2020/12/29 04:39:02;;;;;;;25.80;17.33;;;0.30;99.90;;;-1.27;100.00;97260.88;4865497;28;100031;-67
2020/12/29 04:41:31;;;;;;;25.07;17.27;;;0.30;99.90;;;-1.42;100.00;97265.09;4863875;28;100883;-67
2020/12/29 04:43:58;;;;;;;25.97;17.97;;;0.30;99.90;;;-1.41;100.00;97259.69;4878784;28;100186;-67
2020/12/29 04:46:26;;;;;;;25.33;17.40;;;0.20;99.90;;;-1.53;100.00;97256.50;4861423;28;99647;-66
2020/12/29 04:48:53;;;;;;;28.70;18.93;;;0.10;99.90;;;-1.64;100.00;97258.59;4878027;28;101978;-67
2020/12/29 04:51:20;;;;;;;28.23;18.67;;;0.20;99.90;;;-1.65;100.00;97257.75;4863856;28;100517;-67
2020/12/29 04:53:57;;;;;;;25.40;18.10;;;0.20;99.90;;;-1.79;100.00;97262.75;4864696;28;99603;-67
2020/12/29 04:56:34;;;;;;;27.17;19.20;;;0.00;99.90;;;-1.84;100.00;97268.44;4869194;28;99599;-65
2020/12/29 04:59:02;;;;;;;28.27;18.23;;;0.00;99.90;;;-1.93;100.00;97272.00;4861953;28;100411;-67
2020/12/29 05:01:32;;;;;;;29.87;18.33;;;-0.10;99.90;;;-1.89;100.00;97274.16;4863616;28;99586;-65
2020/12/29 05:03:59;;;;;;;26.17;17.17;;;-0.10;99.90;;;-1.89;100.00;97276.78;4863707;28;99963;-67
2020/12/29 05:06:26;;;;;;;25.07;16.43;;;-0.20;99.90;;;-1.95;100.00;97276.56;4863785;28;99793;-65
2020/12/29 05:08:54;;;;;;;27.17;18.60;;;-0.10;99.90;;;-1.86;100.00;97275.66;4863689;28;100650;-65
2020/12/29 05:11:25;;;;;;;29.40;18.60;;;-0.10;99.90;;;-1.87;100.00;97279.25;4862290;28;100459;-64
2020/12/29 05:13:54;;;;;;;29.13;18.10;;;-0.10;99.90;;;-1.81;100.00;97276.81;4864546;28;99581;-65
2020/12/29 05:16:21;;;;;;;25.20;17.80;;;0.00;99.90;;;-1.85;100.00;97282.53;4864492;28;99362;-67
2020/12/29 05:18:48;;;;;;;28.57;18.90;;;-0.20;99.90;;;-1.81;100.00;97289.94;4864091;28;100633;-64
2020/12/29 05:21:15;;;;;;;30.57;18.90;;;-0.30;99.90;;;-1.89;100.00;97286.44;4877840;28;100062;-65
2020/12/29 05:23:42;;;;;;;32.07;18.57;;;-0.30;99.90;;;-1.94;100.00;97283.44;4864429;28;99645;-64
2020/12/29 05:26:15;;;;;;;27.97;17.87;;;-0.30;99.90;;;-2.04;100.00;97287.97;4863892;28;100113;-65
2020/12/29 05:28:46;;;;;;;27.30;17.60;;;-0.30;99.90;;;-2.03;100.00;97287.81;4864412;28;100131;-64
2020/12/29 05:31:34;;;;;;;27.73;18.77;;;0.00;99.90;;;-2.09;100.00;97287.59;4861267;28;102359;-65
2020/12/29 05:34:01;;;;;;;29.17;18.10;;;-0.30;99.90;;;-2.11;100.00;97293.00;4878298;28;100054;-66
2020/12/29 05:36:29;;;;;;;24.43;16.40;;;-0.10;99.90;;;-1.99;100.00;97293.59;4858087;28;99790;-65
2020/12/29 05:39:07;;;;;;;27.00;16.87;;;-0.20;99.90;;;-1.94;100.00;97296.53;4858254;28;101392;-64
2020/12/29 05:41:40;;;;;;;110.00;24.57;;;-0.40;99.90;;;-1.81;100.00;97296.97;4843743;28;100584;-65
2020/12/29 05:44:08;;;;;;;26.00;17.97;;;-1.40;99.90;;;-1.71;100.00;97297.69;4847309;28;100142;-65
2020/12/29 05:46:36;;;;;;;26.07;17.40;;;-0.30;99.90;;;-1.67;100.00;97299.03;4862275;28;100287;-65
2020/12/29 05:49:05;;;;;;;26.57;17.43;;;-0.30;99.90;;;-1.48;100.00;97303.22;4862745;28;101395;-65
2020/12/29 05:51:34;;;;;;;28.67;17.57;;;-0.10;99.90;;;-1.42;100.00;97301.78;4861747;28;101164;-64
2020/12/29 05:54:03;;;;;;;25.00;16.87;;;-0.30;99.90;;;-1.31;100.00;97302.34;4863305;28;100341;-65
2020/12/29 05:56:32;;;;;;;31.40;17.33;;;-0.10;99.90;;;-1.38;100.00;97305.75;4862400;28;100419;-65
2020/12/29 05:59:01;;;;;;;27.80;17.03;;;0.00;99.90;;;-1.29;100.00;97304.81;4850328;28;101772;-65
2020/12/29 06:01:43;;;;;;;26.77;16.43;;;0.00;99.90;;;-1.39;100.00;97301.50;4861788;28;101553;-64
2020/12/29 06:04:11;;;;;;;25.13;15.83;;;0.10;99.90;;;-1.34;100.00;97300.03;4862442;28;99988;-64
2020/12/29 06:06:40;;;;;;;25.53;16.50;;;0.00;99.90;;;-1.34;100.00;97297.41;4862334;28;100189;-64
2020/12/29 06:09:09;;;;;;;23.37;15.93;;;0.10;99.90;;;-1.30;100.00;97303.16;4862014;28;101521;-65
2020/12/29 06:12:03;;;;;;;21.17;15.40;;;0.20;99.90;;;-1.20;100.00;97309.13;4860099;28;101146;-64
2020/12/29 06:14:29;;;;;;;23.27;15.63;;;0.10;99.90;;;-1.21;100.00;97318.78;4862227;28;100297;-65
2020/12/29 06:16:57;;;;;;;22.20;15.37;;;0.20;99.90;;;-1.13;100.00;97320.66;4876173;28;100007;-65
2020/12/29 06:19:27;;;;;;;23.50;15.33;;;0.70;99.90;;;-1.07;100.00;97325.25;4861542;28;101692;-65
2020/12/29 06:22:06;;;;;;;25.90;16.27;;;0.30;99.90;;;-1.07;100.00;97333.13;4843029;28;100962;-64
2020/12/29 06:24:36;;;;;;;23.20;16.10;;;0.30;99.90;;;-0.98;100.00;97324.28;4894568;28;100221;-64
2020/12/29 06:27:05;;;;;;;22.47;15.23;;;0.50;99.90;;;-0.95;100.00;97331.84;4899613;28;100169;-66
2020/12/29 06:29:35;;;;;;;23.10;15.43;;;0.00;99.90;;;-0.91;100.00;97321.88;4862733;28;100391;-65
2020/12/29 06:32:10;;;;;;;22.87;15.63;;;0.40;99.90;;;-0.96;100.00;97322.34;4861962;28;101014;-65
2020/12/29 06:34:37;;;;;;;21.57;14.43;;;0.50;99.90;;;-1.02;100.00;97325.59;4861414;28;100545;-65
2020/12/29 06:37:23;;;;;;;24.03;15.53;;;0.60;99.90;;;-1.06;100.00;97316.41;4860363;28;100320;-64
2020/12/29 06:39:54;;;;;;;25.17;15.23;;;0.40;99.90;;;-1.11;100.00;97318.66;4861569;28;101177;-64
2020/12/29 06:42:21;;;;;;;23.43;16.23;;;0.40;99.90;;;-1.13;100.00;97328.50;4861972;28;100871;-65
2020/12/29 06:44:55;;;;;;;30.50;15.00;;;0.50;99.90;;;-1.11;100.00;97329.97;4865175;28;100340;-67
2020/12/29 06:47:25;;;;;;;76.77;19.97;;;0.40;99.90;;;-1.07;100.00;97333.13;4877612;28;100159;-65
2020/12/29 06:49:52;;;;;;;28.07;16.30;;;0.30;99.90;;;-1.26;100.00;97342.06;4861984;28;100893;-66
2020/12/29 06:52:29;;;;;;;22.87;15.30;;;0.20;99.90;;;-1.25;100.00;97356.81;4862003;28;100202;-65
2020/12/29 06:54:57;;;;;;;21.00;14.67;;;0.20;99.90;;;-1.30;100.00;97359.06;4862555;28;100289;-66
2020/12/29 06:57:26;;;;;;;24.93;15.37;;;0.20;99.90;;;-1.32;100.00;97363.66;4862666;28;100225;-65
2020/12/29 06:59:52;;;;;;;24.30;15.70;;;1.00;99.90;;;-1.37;100.00;97367.72;4861838;28;101500;-65
2020/12/29 07:02:22;;;;;;;25.37;16.57;;;0.30;99.90;;;-1.39;100.00;97367.06;4862164;28;100670;-65
2020/12/29 07:04:54;;;;;;;24.10;15.67;;;0.20;99.90;;;-1.46;100.00;97374.72;4861529;28;100205;-64
2020/12/29 07:07:32;;;;;;;24.27;16.70;;;0.20;99.90;;;-1.46;100.00;97380.78;4862479;28;100219;-65
2020/12/29 07:10:12;;;;;;;22.27;15.80;;;0.40;99.90;;;-1.45;100.00;97379.78;4862731;28;101079;-65
2020/12/29 07:12:46;;;;;;;31.07;21.90;;;0.10;99.90;;;-1.48;100.00;97377.47;4862496;28;100838;-67
2020/12/29 07:15:20;;;;;;;31.30;20.97;;;0.20;99.90;;;-1.57;100.00;97375.78;4862449;28;100140;-64
2020/12/29 07:18:07;;;;;;;27.60;18.43;;;0.00;99.90;;;-1.49;100.00;97388.97;4861264;28;100128;-65
2020/12/29 07:20:36;;;;;;;24.37;15.97;;;0.10;99.90;;;-1.56;100.00;97379.22;4861915;28;101833;-65
2020/12/29 07:23:08;;;;;;;38.33;26.30;;;0.00;99.90;;;-1.57;100.00;97374.97;4862929;28;101466;-63
2020/12/29 07:25:36;;;;;;;41.43;28.60;;;0.00;99.90;;;-1.54;100.00;97378.09;4862073;28;100290;-65
2020/12/29 07:28:05;;;;;;;25.40;16.17;;;-0.10;99.90;;;-1.60;100.00;97388.38;4862392;28;100319;-63
2020/12/29 07:30:33;;;;;;;24.33;16.50;;;0.10;99.90;;;-1.45;100.00;97386.84;4861170;28;101622;-65
2020/12/29 07:33:03;;;;;;;30.67;21.73;;;0.00;99.90;;;-1.37;100.00;97386.09;4861810;28;101272;-66
2020/12/29 07:35:32;;;;;;;28.17;18.70;;;0.00;99.90;;;-1.34;100.00;97391.84;4929972;28;100212;-65
2020/12/29 07:38:05;;;;;;;26.93;18.90;;;0.10;99.90;;;-1.29;100.00;97392.19;4882540;28;100294;-66
2020/12/29 07:40:31;;;;;;;24.40;14.30;;;0.10;99.90;;;-1.26;100.00;97399.78;4842817;28;100530;-64
2020/12/29 07:42:58;;;;;;;56.20;34.67;;;0.30;99.90;;;-1.26;100.00;97401.56;4842139;28;101286;-63
2020/12/29 07:45:24;;;;;;;30.17;20.97;;;0.40;99.90;;;-1.20;100.00;97408.81;4859960;28;100413;-65
2020/12/29 07:47:52;;;;;;;20.70;14.63;;;0.50;99.90;;;-1.16;100.00;97404.91;4861181;28;100139;-64
2020/12/29 07:50:18;;;;;;;21.40;16.00;;;0.70;99.90;;;-1.11;100.00;97411.31;4861542;28;100485;-63
2020/12/29 07:52:46;;;;;;;20.57;14.37;;;0.80;99.90;;;-0.98;100.00;97410.06;4862175;28;100932;-65
2020/12/29 07:55:15;;;;;;;19.90;14.10;;;0.90;99.90;;;-0.89;100.00;97417.88;4862817;28;100426;-63
2020/12/29 07:57:41;;;;;;;20.10;13.40;;;1.20;99.90;;;-0.90;100.00;97425.88;4861311;28;100232;-62
2020/12/29 08:00:11;;;;;;;30.90;13.87;;;1.30;99.90;;;-0.64;100.00;97421.44;4861832;28;100569;-62
2020/12/29 08:02:49;;;;;;;20.47;13.77;;;1.40;99.90;;;-0.67;100.00;97427.00;4842809;28;101414;-63
2020/12/29 08:05:16;;;;;;;20.33;14.20;;;1.60;99.90;;;-0.55;100.00;97424.91;4859032;28;100419;-64
2020/12/29 08:07:42;;;;;;;27.97;21.03;;;1.70;99.90;;;-0.50;100.00;97438.41;4861386;28;100530;-63
2020/12/29 08:10:09;;;;;;;23.67;16.70;;;2.00;99.90;;;-0.34;100.00;97441.06;4860558;28;101587;-63
2020/12/29 08:12:36;;;;;;;18.83;13.53;;;2.30;99.90;;;-0.23;100.00;97442.56;4861001;28;100617;-63
2020/12/29 08:15:03;;;;;;;15.47;11.97;;;2.30;99.90;;;-0.19;100.00;97447.34;4861777;28;100898;-64
2020/12/29 08:17:29;;;;;;;16.17;12.10;;;2.40;99.90;;;-0.10;100.00;97453.44;4861854;28;100300;-64
2020/12/29 08:20:00;;;;;;;17.00;11.77;;;2.70;99.90;;;0.11;100.00;97448.59;4823416;28;100810;-65
2020/12/29 08:22:30;;;;;;;17.90;11.33;;;2.90;99.90;;;0.13;100.00;97456.28;4824352;28;100274;-63
2020/12/29 08:24:57;;;;;;;16.10;11.83;;;2.20;99.90;;;0.23;100.00;97470.13;4823335;28;100461;-64
2020/12/29 08:27:24;;;;;;;17.87;11.60;;;3.20;99.90;;;0.25;100.00;97481.28;4827634;28;100414;-62
2020/12/29 08:29:51;;;;;;;15.87;12.10;;;3.50;99.90;;;0.43;100.00;97475.91;4822640;28;100956;-63
2020/12/29 08:32:22;;;;;;;16.50;11.63;;;3.70;99.90;;;0.63;100.00;97480.69;4822279;28;101281;-64
2020/12/29 08:34:49;;;;;;;17.90;12.47;;;3.70;99.90;;;0.64;100.00;97494.66;4822889;28;100545;-62
2020/12/29 08:37:23;;;;;;;16.53;10.10;;;4.10;99.90;;;0.86;100.00;97493.22;4823430;28;100306;-64
2020/12/29 08:40:08;;;;;;;14.23;10.17;;;4.30;99.90;;;0.86;100.00;97496.66;4822644;28;101573;-63
2020/12/29 08:42:36;;;;;;;16.63;12.30;;;4.40;99.90;;;0.83;100.00;97504.88;4823657;28;100208;-63
2020/12/29 08:45:08;;;;;;;16.27;11.10;;;4.40;99.90;;;0.83;100.00;97501.44;4823390;28;100492;-65
2020/12/29 08:47:35;;;;;;;13.37;10.03;;;4.50;99.90;;;0.76;100.00;97510.94;4822835;28;100223;-65
2020/12/29 08:50:24;;;;;;;14.10;10.77;;;4.50;99.90;;;0.72;100.00;97518.38;4823237;28;100998;-63
2020/12/29 08:53:02;;;;;;;49.03;33.63;;;4.60;99.90;;;0.75;100.00;97522.47;4823437;28;100386;-63
2020/12/29 08:55:30;;;;;;;52.30;35.73;;;4.40;99.90;;;0.72;100.00;97531.53;4823049;28;102350;-64
2020/12/29 08:57:59;;;;;;;14.30;11.07;;;4.40;99.90;;;0.78;100.00;97535.31;4822872;28;100470;-64
2020/12/29 09:00:28;;;;;;;22.47;15.70;;;4.50;99.90;;;0.89;100.00;97535.78;4822945;28;101101;-65
2020/12/29 09:02:55;;;;;;;27.37;20.43;;;4.90;99.90;;;1.02;100.00;97540.56;4822950;28;101183;-65
2020/12/29 09:05:23;;;;;;;20.93;16.27;;;4.60;99.90;;;0.94;100.00;97538.78;4821636;28;100089;-65
2020/12/29 09:07:50;;;;;;;33.33;23.03;;;4.60;99.90;;;1.14;100.00;97541.06;4823007;28;100202;-66
2020/12/29 09:10:18;;;;;;;21.57;15.87;;;4.60;99.90;;;1.25;100.00;97552.06;4822987;28;101268;-65
2020/12/29 09:12:45;;;;;;;15.37;11.53;;;4.90;99.90;;;1.34;100.00;97558.19;4823327;28;100837;-64
2020/12/29 09:15:14;;;;;;;11.57;8.60;;;5.00;99.90;;;1.48;100.00;97557.50;4823405;28;100077;-64
2020/12/29 09:17:42;;;;;;;12.07;9.97;;;5.30;99.90;;;1.57;100.00;97566.22;4825620;28;100392;-64
2020/12/29 09:20:19;;;;;;;11.23;8.20;;;5.50;99.90;;;1.66;100.00;97565.19;4860869;28;101448;-66
2020/12/29 09:23:01;;;;;;;10.90;8.50;;;5.80;99.90;;;1.75;100.00;97574.72;4860688;28;100345;-66
2020/12/29 09:25:34;;;;;;;10.97;7.87;;;6.00;99.90;;;1.72;100.00;97570.63;4861322;28;100098;-63
2020/12/29 09:28:21;;;;;;;8.70;6.83;;;6.10;99.90;;;1.76;100.00;97579.00;4861485;28;100328;-66
2020/12/29 09:30:58;;;;;;;10.57;7.83;;;6.20;99.90;;;1.95;100.00;97581.28;4860622;28;101099;-63
2020/12/29 09:33:27;;;;;;;10.50;7.83;;;6.50;99.90;;;2.39;100.00;97589.50;4874174;28;102705;-65
2020/12/29 09:35:53;;;;;;;8.77;7.13;;;7.10;99.90;;;2.42;100.00;97589.16;4860808;28;100254;-63
2020/12/29 09:38:20;;;;;;;9.87;7.40;;;6.80;99.90;;;2.75;100.00;97587.16;4858238;28;100026;-63
2020/12/29 09:40:49;;;;;;;9.53;6.80;;;7.10;99.90;;;2.78;100.00;97586.81;4860936;28;100529;-64
2020/12/29 09:43:16;;;;;;;7.80;6.73;;;7.60;99.90;;;2.79;100.00;97582.34;4860969;28;100419;-63
2020/12/29 09:45:45;;;;;;;8.03;6.83;;;7.90;99.90;;;2.72;100.00;97587.50;4860329;28;100304;-63
2020/12/29 09:48:12;;;;;;;7.47;6.10;;;8.10;99.90;;;2.56;100.00;97590.25;4860281;28;100038;-66
2020/12/29 09:50:39;;;;;;;7.93;6.27;;;8.20;99.90;;;2.75;100.00;97588.97;4860407;28;100923;-63
2020/12/29 09:53:05;;;;;;;7.93;6.67;;;8.90;99.90;;;2.76;100.00;97595.91;4860039;28;101467;-68
2020/12/29 09:55:32;;;;;;;7.67;5.77;;;8.40;99.90;;;2.87;100.00;97596.31;4859859;28;100296;-65
2020/12/29 09:57:58;;;;;;;7.47;6.27;;;8.50;99.90;;;2.93;100.00;97588.69;4860111;28;100057;-65
2020/12/29 10:00:25;;;;;;;8.17;6.70;;;8.70;99.30;;;2.98;100.00;97592.44;4859669;28;101195;-67
2020/12/29 10:02:52;;;;;;;7.80;6.27;;;8.50;99.50;;;3.05;100.00;97597.84;4860126;28;100432;-65
2020/12/29 10:05:19;;;;;;;8.40;6.40;;;9.00;99.00;;;3.23;100.00;97596.56;4860432;28;99911;-67
2020/12/29 10:07:46;;;;;;;8.40;6.60;;;8.80;99.20;;;3.09;100.00;97599.16;4860260;28;100051;-65
2020/12/29 10:10:13;;;;;;;7.83;5.53;;;9.10;98.40;;;2.93;100.00;97608.00;4859919;28;101564;-66
2020/12/29 10:12:40;;;;;;;6.93;5.90;;;9.00;96.40;;;3.03;100.00;97600.69;4873814;28;100694;-66